createdAt,value
2023-03-05T00:04:58.036Z,95872.16
2023-03-05T00:10:01.264Z,95869.13
2023-03-05T00:15:05.273Z,95859.16
2023-03-05T00:20:07.650Z,95854.25
2023-03-05T00:25:10.829Z,95860.56
2023-03-05T00:30:14.275Z,95859.16
2023-03-05T00:35:16.683Z,95848.81
2023-03-05T00:40:19.013Z,95840.25
2023-03-05T00:45:21.500Z,95829.28
2023-03-05T00:50:24.636Z,95824.41
2023-03-05T00:55:27.104Z,95828.28
2023-03-05T01:00:30.381Z,95819.53
2023-03-05T01:05:36.360Z,95821.56
2023-03-05T01:10:39.899Z,95819.34
2023-03-05T01:15:54.564Z,95811.63
2023-03-05T01:20:56.935Z,95805.72
2023-03-05T01:25:59.349Z,95800.63
2023-03-05T01:31:01.746Z,95788.66
2023-03-05T01:36:04.415Z,95781.53
2023-03-05T01:41:06.804Z,95785.59
2023-03-05T01:46:09.206Z,95774.84
2023-03-05T01:51:11.505Z,95781.31
2023-03-05T01:56:14.190Z,95775.81
2023-03-05T02:01:17.125Z,95761.22
2023-03-05T02:06:23.923Z,95766.69
2023-03-05T02:11:27.698Z,95767.09
2023-03-05T02:16:35.761Z,95765.47
2023-03-05T02:21:38.128Z,95761.81
2023-03-05T02:26:40.449Z,95765.88
2023-03-05T02:31:43.042Z,95753.25
2023-03-05T02:36:46.697Z,95750.81
2023-03-05T02:41:50.025Z,95736.56
2023-03-05T02:46:52.384Z,95741.03
2023-03-05T02:51:54.698Z,95725.59
2023-03-05T02:56:57.932Z,95711.72
2023-03-05T03:02:00.354Z,95702.38
2023-03-05T03:07:03.194Z,95696.47
2023-03-05T03:12:05.966Z,95695.84
2023-03-05T03:17:18.422Z,95688.09
2023-03-05T03:22:21.853Z,95681.16
2023-03-05T03:27:24.520Z,95681.16
2023-03-05T03:32:26.907Z,95677.88
2023-03-05T03:37:29.357Z,95678.22
2023-03-05T03:42:31.683Z,95680.25
2023-03-05T03:47:34.068Z,95683.06
2023-03-05T03:52:36.520Z,95667.63
2023-03-05T03:57:40.732Z,95666.16
2023-03-05T04:02:43.912Z,95664.97
2023-03-05T04:07:58.404Z,95661.31
2023-03-05T04:13:01.330Z,95659.84
2023-03-05T04:18:04.001Z,95652.69
2023-03-05T04:23:06.759Z,95644.34
2023-03-05T04:28:09.385Z,95636.66
2023-03-05T04:33:11.883Z,95631.31
2023-03-05T04:38:15.000Z,95633.31
2023-03-05T04:43:17.823Z,95632.13
2023-03-05T04:48:20.214Z,95632.31
2023-03-05T04:53:32.898Z,95619.53
2023-03-05T04:58:36.805Z,95613.00
2023-03-05T05:03:40.447Z,95616.69
2023-03-05T05:08:43.933Z,95605.28
2023-03-05T05:13:46.866Z,95607.28
2023-03-05T05:18:51.961Z,95606.09
2023-03-05T05:23:54.951Z,95604.94
2023-03-05T05:28:57.688Z,95603.22
2023-03-05T05:34:00.023Z,95606.44
2023-03-05T05:39:03.252Z,95604.16
2023-03-05T05:44:05.613Z,95607.59
2023-03-05T05:49:08.779Z,95616.00
2023-03-05T05:54:11.126Z,95604.38
2023-03-05T05:59:14.235Z,95614.31
2023-03-05T06:04:16.876Z,95610.41
2023-03-05T06:09:19.156Z,95616.69
2023-03-05T06:14:21.467Z,95606.28
2023-03-05T06:19:24.234Z,95607.31
2023-03-05T06:24:26.543Z,95614.00
2023-03-05T06:29:28.994Z,95614.78
2023-03-05T06:34:31.429Z,95609.16
2023-03-05T06:39:34.580Z,95603.41
2023-03-05T06:44:37.170Z,95610.47
2023-03-05T06:49:39.566Z,95594.19
2023-03-05T06:54:52.783Z,95602.84
2023-03-05T06:59:55.567Z,95603.50
2023-03-05T07:04:58.152Z,95605.34
2023-03-05T07:10:00.825Z,95600.91
2023-03-05T07:15:03.603Z,95602.13
2023-03-05T07:20:06.190Z,95602.13
2023-03-05T07:25:08.829Z,95602.97
2023-03-05T07:30:11.330Z,95600.88
2023-03-05T07:35:15.037Z,95582.78
2023-03-05T07:40:18.192Z,95590.06
2023-03-05T07:45:20.539Z,95598.34
2023-03-05T07:50:23.815Z,95595.69
2023-03-05T07:55:26.976Z,95586.41
2023-03-05T08:00:32.426Z,95579.56
2023-03-05T08:05:35.528Z,95582.56
2023-03-05T08:10:38.218Z,95576.28
2023-03-05T08:15:47.613Z,95578.59
2023-03-05T08:20:51.294Z,95565.75
2023-03-05T08:25:54.253Z,95573.03
2023-03-05T08:30:57.572Z,95563.06
2023-03-05T08:36:00.754Z,95562.00
2023-03-05T08:41:03.330Z,95570.38
2023-03-05T08:46:05.615Z,95557.78
2023-03-05T08:51:10.536Z,95560.00
2023-03-05T08:56:13.151Z,95548.84
2023-03-05T09:01:15.474Z,95545.63
2023-03-05T09:06:28.560Z,95541.22
2023-03-05T09:11:31.450Z,95541.34
2023-03-05T09:16:34.462Z,95537.91
2023-03-05T09:21:37.348Z,95527.31
2023-03-05T09:26:42.258Z,95527.88
2023-03-05T09:31:44.964Z,95527.06
2023-03-05T09:36:47.823Z,95526.59
2023-03-05T09:41:51.421Z,95527.63
2023-03-05T09:46:54.710Z,95522.78
2023-03-05T09:51:57.174Z,95518.84
2023-03-05T09:57:00.125Z,95512.38
2023-03-05T10:02:02.492Z,95519.66
2023-03-05T10:07:06.058Z,95516.69
2023-03-05T10:12:10.053Z,95513.91
2023-03-05T10:17:12.965Z,95499.47
2023-03-05T10:22:17.194Z,95510.53
2023-03-05T10:27:19.759Z,95494.34
2023-03-05T10:32:22.341Z,95488.16
2023-03-05T10:37:24.749Z,95486.19
2023-03-05T10:42:29.576Z,95483.38
2023-03-05T10:47:34.834Z,95479.13
2023-03-05T10:52:37.850Z,95467.22
2023-03-05T10:57:41.268Z,95459.06
2023-03-05T11:02:44.455Z,95442.81
2023-03-05T11:07:47.037Z,95447.31
2023-03-05T11:12:50.226Z,95437.38
2023-03-05T11:17:52.714Z,95441.94
2023-03-05T11:22:55.142Z,95432.91
2023-03-05T11:27:57.635Z,95422.00
2023-03-05T11:33:00.407Z,95412.81
2023-03-05T11:38:02.769Z,95416.41
2023-03-05T11:43:05.899Z,95416.22
2023-03-05T11:48:08.206Z,95409.13
2023-03-05T11:53:12.161Z,95398.81
2023-03-05T11:58:15.413Z,95396.03
2023-03-05T12:03:17.738Z,95394.56
2023-03-05T12:08:21.434Z,95384.16
2023-03-05T12:13:23.850Z,95369.34
2023-03-05T12:18:28.953Z,95364.31
2023-03-05T12:23:31.276Z,95360.88
2023-03-05T12:28:34.364Z,95345.19
2023-03-05T12:33:38.417Z,95338.91
2023-03-05T12:38:41.493Z,95341.00
2023-03-05T12:43:44.227Z,95339.69
2023-03-05T12:48:47.879Z,95327.13
2023-03-05T12:53:50.438Z,95322.91
2023-03-05T12:58:52.893Z,95320.75
2023-03-05T13:03:56.137Z,95309.22
2023-03-05T13:08:59.302Z,95307.69
2023-03-05T13:14:02.870Z,95296.81
2023-03-05T13:19:07.407Z,95305.09
2023-03-05T13:24:10.593Z,95296.13
2023-03-05T13:29:15.987Z,95295.94
2023-03-05T13:34:18.448Z,95295.03
2023-03-05T13:39:21.194Z,95285.91
2023-03-05T13:44:24.344Z,95287.03
2023-03-05T13:49:28.969Z,95284.31
2023-03-05T13:54:31.589Z,95275.19
2023-03-05T13:59:34.062Z,95271.25
2023-03-05T14:04:36.468Z,95266.56
2023-03-05T14:09:38.893Z,95267.19
2023-03-05T14:14:41.222Z,95260.84
2023-03-05T14:19:43.638Z,95264.88
2023-03-05T14:24:49.062Z,95255.19
2023-03-05T14:29:51.399Z,95247.78
2023-03-05T14:34:53.702Z,95236.25
2023-03-05T14:39:56.985Z,95227.56
2023-03-05T14:44:59.445Z,95222.25
2023-03-05T14:50:01.832Z,95214.19
2023-03-05T14:55:04.602Z,95208.38
2023-03-05T15:00:08.038Z,95207.84
2023-03-05T15:05:11.275Z,95210.94
2023-03-05T15:10:14.514Z,95209.56
2023-03-05T15:15:17.287Z,95213.88
2023-03-05T15:20:20.470Z,95214.03
2023-03-05T15:25:26.583Z,95204.53
2023-03-05T15:30:29.995Z,95197.19
2023-03-05T15:35:35.348Z,95196.00
2023-03-05T15:40:40.351Z,95187.06
2023-03-05T15:45:43.460Z,95176.94
2023-03-05T15:50:46.518Z,95177.16
2023-03-05T15:55:49.410Z,95176.69
2023-03-05T16:00:51.860Z,95181.94
2023-03-05T16:06:05.016Z,95167.78
2023-03-05T16:11:10.525Z,95154.00
2023-03-05T16:16:15.429Z,95156.91
2023-03-05T16:21:18.196Z,95159.78
2023-03-05T16:26:20.547Z,95162.81
2023-03-05T16:31:24.647Z,95150.84
2023-03-05T16:36:27.850Z,95155.38
2023-03-05T16:41:30.218Z,95152.28
2023-03-05T16:46:35.010Z,95155.06
2023-03-05T16:51:37.519Z,95150.47
2023-03-05T16:56:40.585Z,95138.97
2023-03-05T17:01:44.736Z,95139.47
2023-03-05T17:06:49.189Z,95134.63
2023-03-05T17:11:52.985Z,95129.53
2023-03-05T17:16:59.865Z,95134.78
2023-03-05T17:22:12.914Z,95139.84
2023-03-05T17:27:25.215Z,95131.22
2023-03-05T17:32:27.637Z,95127.25
2023-03-05T17:37:30.042Z,95127.13
2023-03-05T17:42:33.003Z,95127.44
2023-03-05T17:47:35.418Z,95126.97
2023-03-05T17:52:41.033Z,95132.84
2023-03-05T17:57:43.407Z,95129.03
2023-03-05T18:02:46.185Z,95121.56
2023-03-05T18:07:48.472Z,95117.31
2023-03-05T18:13:00.835Z,95120.72
2023-03-05T18:18:03.993Z,95117.69
2023-03-05T18:23:07.254Z,95113.50
2023-03-05T18:28:10.672Z,95121.00
2023-03-05T18:33:13.127Z,95107.19
2023-03-05T18:38:17.151Z,95102.19
2023-03-05T18:43:20.598Z,95108.44
2023-03-05T18:48:23.414Z,95106.94
2023-03-05T18:53:36.111Z,95099.13
2023-03-05T18:58:39.574Z,95087.47
2023-03-05T19:03:42.179Z,95094.28
2023-03-05T19:08:44.874Z,95083.69
2023-03-05T19:13:50.760Z,95078.97
2023-03-05T19:19:16.969Z,95078.72
2023-03-05T19:24:20.431Z,95078.47
2023-03-05T19:29:23.936Z,95084.13
2023-03-05T19:34:36.653Z,95074.56
2023-03-05T19:39:40.592Z,95076.72
2023-03-05T19:44:44.743Z,95064.75
2023-03-05T19:49:47.795Z,95072.38
2023-03-05T19:54:51.151Z,95070.06
2023-03-05T19:59:53.775Z,95064.16
2023-03-05T20:04:57.421Z,95056.47
2023-03-05T20:10:00.080Z,95060.97
2023-03-05T20:15:11.761Z,95062.56
2023-03-05T20:20:24.088Z,95055.66
2023-03-05T20:25:26.414Z,95044.41
2023-03-05T20:30:28.781Z,95050.84
2023-03-05T20:35:31.897Z,95044.25
2023-03-05T20:40:34.284Z,95041.59
2023-03-05T20:45:39.096Z,95042.91
2023-03-05T20:50:42.259Z,95029.69
2023-03-05T20:55:54.657Z,95033.97
2023-03-05T21:00:57.902Z,95033.91
2023-03-05T21:06:00.694Z,95030.75
2023-03-05T21:11:02.979Z,95029.94
2023-03-05T21:16:05.387Z,95017.19
2023-03-05T21:21:07.775Z,95017.41
2023-03-05T21:26:10.202Z,95016.38
2023-03-05T21:31:14.214Z,95003.84
2023-03-05T21:36:18.656Z,94997.81
2023-03-05T21:41:23.036Z,94987.69
2023-03-05T21:46:25.439Z,94985.75
2023-03-05T21:51:58.921Z,94981.72
2023-03-05T21:57:01.295Z,94975.78
2023-03-05T22:02:04.449Z,94973.84
2023-03-05T22:07:06.739Z,94961.94
2023-03-05T22:12:32.086Z,94952.63
2023-03-05T22:17:44.371Z,94950.88
2023-03-05T22:22:47.456Z,94956.72
2023-03-05T22:27:50.064Z,94947.59
2023-03-05T22:32:52.498Z,94954.00
2023-03-05T22:37:54.926Z,94942.75
2023-03-05T22:42:57.286Z,94941.38
2023-03-05T22:47:59.911Z,94939.78
2023-03-05T22:53:03.419Z,94933.84
2023-03-05T22:58:06.644Z,94929.59
2023-03-05T23:03:09.116Z,94932.53
2023-03-05T23:08:11.612Z,94924.94
2023-03-05T23:13:13.930Z,94919.03
2023-03-05T23:18:16.553Z,94920.09
2023-03-05T23:23:19.663Z,94914.25
2023-03-05T23:28:22.075Z,94907.81
2023-03-05T23:33:25.421Z,94907.00
2023-03-05T23:38:27.814Z,94907.56
2023-03-05T23:43:30.301Z,94906.69
2023-03-05T23:48:33.009Z,94902.50
2023-03-05T23:53:35.385Z,94894.88
2023-03-05T23:58:37.860Z,94895.59
